createdAt,value
2019-01-19T00:01:12.350Z,75.23
2019-01-19T00:04:16.061Z,75.24
2019-01-19T00:07:02.183Z,75.27
2019-01-19T00:09:49.563Z,75.77
2019-01-19T00:12:21.141Z,75.56
2019-01-19T00:14:49.801Z,75.68
2019-01-19T00:17:39.419Z,75.64
2019-01-19T00:20:22.845Z,75.40
2019-01-19T00:23:06.215Z,75.38
2019-01-19T00:25:54.206Z,75.38
2019-01-19T00:28:28.687Z,75.32
2019-01-19T00:31:00.183Z,75.07
2019-01-19T00:33:50.481Z,74.88
2019-01-19T00:36:24.633Z,75.21
2019-01-19T00:39:04.838Z,75.39
2019-01-19T00:41:52.882Z,75.76
2019-01-19T00:44:42.539Z,75.97
2019-01-19T00:47:20.042Z,75.97
2019-01-19T00:49:51.599Z,75.97
2019-01-19T00:52:35.207Z,75.23
2019-01-19T00:55:15.539Z,75.23
2019-01-19T00:57:58.789Z,75.43
2019-01-19T01:00:30.309Z,75.43
2019-01-19T01:03:13.626Z,75.18
2019-01-19T01:05:45.199Z,75.65
2019-01-19T01:08:37.747Z,75.45
2019-01-19T01:11:24.429Z,75.42
2019-01-19T01:14:17.071Z,75.24
2019-01-19T01:16:54.503Z,75.02
2019-01-19T01:19:32.860Z,74.75
2019-01-19T01:22:04.640Z,74.59
2019-01-19T01:24:45.774Z,75.03
2019-01-19T01:27:25.832Z,75.30
2019-01-19T01:30:21.388Z,75.30
2019-01-19T01:32:52.966Z,75.32
2019-01-19T01:35:36.281Z,75.06
2019-01-19T01:38:07.810Z,75.27
2019-01-19T01:40:53.759Z,75.47
2019-01-19T01:43:25.330Z,75.55
2019-01-19T01:46:02.577Z,75.36
2019-01-19T01:48:53.342Z,75.48
2019-01-19T01:51:31.565Z,75.52
2019-01-19T01:54:26.068Z,75.96
2019-01-19T01:56:56.646Z,75.71
2019-01-19T01:59:37.005Z,75.65
2019-01-19T02:02:14.638Z,75.75
2019-01-19T02:05:02.746Z,75.64
2019-01-19T02:07:43.209Z,75.83
2019-01-19T02:10:31.083Z,76.65
2019-01-19T02:13:11.643Z,77.04
2019-01-19T02:16:05.871Z,77.23
2019-01-19T02:18:39.948Z,76.71
2019-01-19T02:21:18.895Z,76.35
2019-01-19T02:23:56.208Z,76.40
2019-01-19T02:26:49.015Z,76.48
2019-01-19T02:29:38.637Z,77.30
2019-01-19T02:32:10.224Z,76.60
2019-01-19T02:34:50.911Z,76.39
2019-01-19T02:37:28.319Z,76.26
2019-01-19T02:40:09.755Z,76.59
2019-01-19T02:42:50.158Z,76.84
2019-01-19T02:45:27.398Z,77.05
2019-01-19T02:48:07.597Z,76.42
2019-01-19T02:50:51.233Z,76.12
2019-01-19T02:53:34.709Z,75.60
2019-01-19T02:56:18.129Z,75.59
2019-01-19T02:58:52.417Z,75.87
2019-01-19T03:01:26.882Z,75.75
2019-01-19T03:04:10.161Z,75.45
2019-01-19T03:06:47.369Z,74.70
2019-01-19T03:09:30.787Z,74.18
2019-01-19T03:12:02.258Z,73.74
2019-01-19T03:14:42.529Z,73.52
2019-01-19T03:17:22.631Z,73.29
2019-01-19T03:19:56.961Z,72.92
2019-01-19T03:22:44.976Z,72.80
2019-01-19T03:25:22.366Z,72.58
2019-01-19T03:28:02.907Z,72.66
2019-01-19T03:30:49.950Z,72.53
2019-01-19T03:33:27.247Z,72.37
2019-01-19T03:36:19.985Z,72.28
2019-01-19T03:38:54.027Z,72.26
2019-01-19T03:41:26.187Z,72.19
2019-01-19T03:44:09.337Z,72.18
2019-01-19T03:47:12.352Z,72.24
2019-01-19T03:50:06.156Z,72.29
2019-01-19T03:52:46.343Z,72.62
2019-01-19T03:55:34.337Z,72.85
2019-01-19T03:58:40.441Z,73.62
2019-01-19T04:01:33.085Z,73.60
2019-01-19T04:04:13.352Z,74.24
2019-01-19T04:06:47.715Z,75.25
2019-01-19T04:09:41.801Z,74.94
2019-01-19T04:12:21.851Z,75.12
2019-01-19T04:14:59.119Z,74.86
2019-01-19T04:17:47.427Z,74.88
2019-01-19T04:20:21.792Z,75.52
2019-01-19T04:22:50.284Z,75.16
2019-01-19T04:25:22.090Z,74.84
2019-01-19T04:27:53.093Z,75.31
2019-01-19T04:30:21.606Z,75.36
2019-01-19T04:32:50.136Z,75.67
2019-01-19T04:35:18.700Z,75.71
2019-01-19T04:37:47.153Z,75.37
2019-01-19T04:40:15.695Z,74.95
2019-01-19T04:42:44.881Z,73.99
2019-01-19T04:45:13.608Z,73.64
2019-01-19T04:47:42.088Z,73.40
2019-01-19T04:50:11.572Z,72.66
2019-01-19T04:52:40.081Z,72.19
2019-01-19T04:55:08.705Z,71.68
2019-01-19T04:57:37.598Z,71.62
2019-01-19T05:00:11.557Z,71.89
2019-01-19T05:02:40.094Z,71.93
2019-01-19T05:05:08.697Z,72.73
2019-01-19T05:07:37.124Z,72.74
2019-01-19T05:10:08.905Z,73.19
2019-01-19T05:12:37.365Z,72.96
2019-01-19T05:15:08.997Z,73.38
2019-01-19T05:17:37.691Z,73.34
2019-01-19T05:20:09.269Z,73.66
2019-01-19T05:22:37.760Z,73.34
2019-01-19T05:25:08.661Z,73.84
2019-01-19T05:27:37.102Z,73.88
2019-01-19T05:30:16.717Z,73.64
2019-01-19T05:32:47.107Z,73.09
2019-01-19T05:35:15.825Z,73.53
2019-01-19T05:37:44.254Z,72.95
2019-01-19T05:40:14.125Z,73.23
2019-01-19T05:42:42.613Z,72.89
2019-01-19T05:45:13.404Z,73.26
2019-01-19T05:47:41.926Z,73.63
2019-01-19T05:50:19.324Z,74.13
2019-01-19T05:52:47.818Z,73.76
2019-01-19T05:55:16.342Z,73.89
2019-01-19T05:57:44.797Z,74.02
2019-01-19T06:00:19.320Z,74.26
2019-01-19T06:02:47.805Z,74.48
2019-01-19T06:05:16.791Z,74.68
2019-01-19T06:07:45.282Z,74.32
2019-01-19T06:10:17.520Z,74.19
2019-01-19T06:12:46.369Z,73.98
2019-01-19T06:15:16.448Z,74.19
2019-01-19T06:17:44.962Z,74.12
2019-01-19T06:20:17.708Z,74.41
2019-01-19T06:22:46.164Z,74.05
2019-01-19T06:25:16.147Z,74.13
2019-01-19T06:27:44.749Z,74.66
2019-01-19T06:30:19.742Z,74.53
2019-01-19T06:32:49.628Z,74.35
2019-01-19T06:35:18.227Z,73.72
2019-01-19T06:37:46.888Z,74.57
2019-01-19T06:40:17.480Z,74.94
2019-01-19T06:42:46.246Z,75.08
2019-01-19T06:45:20.270Z,75.38
2019-01-19T06:47:48.777Z,74.97
2019-01-19T06:50:18.610Z,75.42
2019-01-19T06:52:47.296Z,75.19
2019-01-19T06:55:21.475Z,74.88
2019-01-19T06:57:49.914Z,75.04
2019-01-19T07:00:19.016Z,75.21
2019-01-19T07:02:47.504Z,74.79
2019-01-19T07:05:16.185Z,75.02
2019-01-19T07:07:44.715Z,74.74
2019-01-19T07:10:15.804Z,74.91
2019-01-19T07:12:44.347Z,74.87
2019-01-19T07:15:14.027Z,75.92
2019-01-19T07:17:44.356Z,75.52
2019-01-19T07:20:15.396Z,76.09
2019-01-19T07:22:43.946Z,75.60
2019-01-19T07:25:12.554Z,75.79
2019-01-19T07:27:41.171Z,75.43
2019-01-19T07:30:12.856Z,75.45
2019-01-19T07:32:41.290Z,75.35
2019-01-19T07:35:13.170Z,74.85
2019-01-19T07:37:41.693Z,75.21
2019-01-19T07:40:13.096Z,75.01
2019-01-19T07:42:42.758Z,75.24
2019-01-19T07:45:13.648Z,75.04
2019-01-19T07:47:43.366Z,75.27
2019-01-19T07:50:16.702Z,74.82
2019-01-19T07:52:45.282Z,75.06
2019-01-19T07:55:16.683Z,75.44
2019-01-19T07:57:45.092Z,75.50
2019-01-19T08:00:28.748Z,75.41
2019-01-19T08:02:57.278Z,75.57
2019-01-19T08:05:25.916Z,75.42
2019-01-19T08:07:54.529Z,75.23
2019-01-19T08:10:22.977Z,75.37
2019-01-19T08:12:52.131Z,75.07
2019-01-19T08:15:23.324Z,75.24
2019-01-19T08:17:54.053Z,76.06
2019-01-19T08:20:23.669Z,76.59
2019-01-19T08:23:15.200Z,76.25
2019-01-19T08:25:49.213Z,76.29
2019-01-19T08:28:17.624Z,75.99
2019-01-19T08:30:49.039Z,75.71
2019-01-19T08:33:18.006Z,76.06
2019-01-19T08:35:48.177Z,76.42
2019-01-19T08:38:16.685Z,76.25
2019-01-19T08:40:51.982Z,75.62
2019-01-19T08:43:22.304Z,75.79
2019-01-19T08:45:50.801Z,75.24
2019-01-19T08:48:19.692Z,75.42
2019-01-19T08:50:48.173Z,75.63
2019-01-19T08:53:16.631Z,75.64
2019-01-19T08:55:45.206Z,74.96
2019-01-19T08:58:13.768Z,74.26
2019-01-19T09:00:42.217Z,73.70
2019-01-19T09:03:10.795Z,73.66
2019-01-19T09:05:40.717Z,72.21
2019-01-19T09:08:09.212Z,72.34
2019-01-19T09:10:37.731Z,70.93
2019-01-19T09:13:06.298Z,71.20
2019-01-19T09:15:35.003Z,71.01
2019-01-19T09:18:07.844Z,70.20
2019-01-19T09:20:38.294Z,70.59
2019-01-19T09:23:10.905Z,71.00
2019-01-19T09:25:39.716Z,70.34
2019-01-19T09:28:08.174Z,70.16
2019-01-19T09:30:36.713Z,70.41
2019-01-19T09:33:06.712Z,70.69
2019-01-19T09:35:35.226Z,70.89
2019-01-19T09:38:04.171Z,70.77
2019-01-19T09:40:32.588Z,70.82
2019-01-19T09:43:01.256Z,70.52
2019-01-19T09:45:29.918Z,70.19
2019-01-19T09:47:58.613Z,69.98
2019-01-19T09:50:27.314Z,69.20
2019-01-19T09:52:55.942Z,68.93
2019-01-19T09:55:25.619Z,69.42
2019-01-19T09:57:54.088Z,69.74
2019-01-19T10:00:24.665Z,69.07
2019-01-19T10:02:53.227Z,68.94
2019-01-19T10:05:27.647Z,68.55
2019-01-19T10:07:56.201Z,69.30
2019-01-19T10:10:25.867Z,68.29
2019-01-19T10:12:54.468Z,68.04
2019-01-19T10:15:23.279Z,68.23
2019-01-19T10:17:51.916Z,67.74
2019-01-19T10:20:31.872Z,68.05
2019-01-19T10:23:07.952Z,68.58
2019-01-19T10:25:38.569Z,68.15
2019-01-19T10:28:07.363Z,67.50
2019-01-19T10:30:35.898Z,67.40
2019-01-19T10:33:04.486Z,67.05
2019-01-19T10:35:34.520Z,67.39
2019-01-19T10:38:05.893Z,66.64
2019-01-19T10:40:34.532Z,66.33
2019-01-19T10:43:06.055Z,66.49
2019-01-19T10:45:36.274Z,66.02
2019-01-19T10:48:06.707Z,65.12
2019-01-19T10:50:35.551Z,64.58
2019-01-19T10:53:08.657Z,64.60
2019-01-19T10:55:38.699Z,65.05
2019-01-19T10:58:07.325Z,65.16
2019-01-19T11:00:36.724Z,63.95
2019-01-19T11:03:11.328Z,64.74
2019-01-19T11:05:39.834Z,64.69
2019-01-19T11:08:09.974Z,63.89
2019-01-19T11:10:38.465Z,64.06
2019-01-19T11:13:06.912Z,64.56
2019-01-19T11:15:35.518Z,63.69
2019-01-19T11:18:04.142Z,62.87
2019-01-19T11:20:32.766Z,63.61
2019-01-19T11:23:02.048Z,62.21
2019-01-19T11:25:30.963Z,61.89
2019-01-19T11:27:59.467Z,62.39
2019-01-19T11:30:33.041Z,62.28
2019-01-19T11:33:01.686Z,61.79
2019-01-19T11:35:30.942Z,62.08
2019-01-19T11:37:59.470Z,62.57
2019-01-19T11:40:33.569Z,62.07
2019-01-19T11:43:03.641Z,61.73
2019-01-19T11:45:32.066Z,61.24
2019-01-19T11:48:00.675Z,60.96
2019-01-19T11:50:29.907Z,60.39
2019-01-19T11:52:58.413Z,60.33
2019-01-19T11:55:27.092Z,60.45
2019-01-19T11:57:58.395Z,59.68
2019-01-19T12:00:29.294Z,59.59
2019-01-19T12:02:57.935Z,59.96
2019-01-19T12:05:26.474Z,60.34
2019-01-19T12:07:55.064Z,59.96
2019-01-19T12:10:31.433Z,59.70
2019-01-19T12:13:01.347Z,58.06
2019-01-19T12:15:29.998Z,57.75
2019-01-19T12:17:58.760Z,58.42
2019-01-19T12:20:30.042Z,58.31
2019-01-19T12:22:58.572Z,58.87
2019-01-19T12:25:27.176Z,58.40
2019-01-19T12:27:55.821Z,58.14
2019-01-19T12:30:32.104Z,58.85
2019-01-19T12:33:00.832Z,59.40
2019-01-19T12:35:30.070Z,58.69
2019-01-19T12:37:59.622Z,59.38
2019-01-19T12:40:29.838Z,59.86
2019-01-19T12:43:07.204Z,58.77
2019-01-19T12:45:38.891Z,59.42
2019-01-19T12:48:08.914Z,59.06
2019-01-19T12:50:37.506Z,59.46
2019-01-19T12:53:06.072Z,58.91
2019-01-19T12:55:34.598Z,58.89
2019-01-19T12:58:03.337Z,59.03
2019-01-19T13:00:31.872Z,58.91
2019-01-19T13:03:00.560Z,60.22
2019-01-19T13:05:34.901Z,59.69
2019-01-19T13:08:05.319Z,59.66
2019-01-19T13:10:42.875Z,60.25
2019-01-19T13:13:12.168Z,59.85
2019-01-19T13:15:49.410Z,59.60
2019-01-19T13:18:37.147Z,59.43
2019-01-19T13:21:11.415Z,58.98
2019-01-19T13:23:59.192Z,59.02
2019-01-19T13:26:45.723Z,59.41
2019-01-19T13:29:28.501Z,59.96
2019-01-19T13:32:14.694Z,60.21
2019-01-19T13:34:55.128Z,60.48
2019-01-19T13:37:44.037Z,60.61
2019-01-19T13:40:36.990Z,60.13
2019-01-19T13:43:20.154Z,60.37
2019-01-19T13:45:54.297Z,60.74
2019-01-19T13:48:37.599Z,61.16
2019-01-19T13:51:36.577Z,61.49
2019-01-19T13:54:27.055Z,61.36
2019-01-19T13:57:22.911Z,61.15
2019-01-19T14:00:00.310Z,61.39
2019-01-19T14:02:48.228Z,61.56
2019-01-19T14:05:34.763Z,61.09
2019-01-19T14:08:22.739Z,61.96
2019-01-19T14:11:02.791Z,62.14
2019-01-19T14:13:37.165Z,62.71
2019-01-19T14:16:31.238Z,63.01
2019-01-19T14:19:11.460Z,63.13
2019-01-19T14:22:03.571Z,63.70
2019-01-19T14:24:38.093Z,63.78
2019-01-19T14:27:18.643Z,63.63
2019-01-19T14:29:59.017Z,63.91
2019-01-19T14:32:45.379Z,63.94
2019-01-19T14:35:22.608Z,64.30
2019-01-19T14:38:22.854Z,64.20
2019-01-19T14:41:03.274Z,65.02
2019-01-19T14:43:40.912Z,65.23
2019-01-19T14:46:21.862Z,65.68
2019-01-19T14:49:14.674Z,65.99
2019-01-19T14:51:52.043Z,66.58
2019-01-19T14:54:46.708Z,66.36
2019-01-19T14:57:46.490Z,66.59
2019-01-19T15:00:17.970Z,66.82
2019-01-19T15:03:01.952Z,66.97
2019-01-19T15:05:33.482Z,67.01
2019-01-19T15:08:32.056Z,67.04
2019-01-19T15:11:18.538Z,67.23
2019-01-19T15:13:55.845Z,67.91
2019-01-19T15:16:45.627Z,68.08
2019-01-19T15:19:35.114Z,68.34
2019-01-19T15:22:30.139Z,67.96
2019-01-19T15:25:21.043Z,68.87
2019-01-19T15:27:52.610Z,68.84
2019-01-19T15:30:59.277Z,68.79
2019-01-19T15:33:33.827Z,68.81
2019-01-19T15:36:23.237Z,69.31
2019-01-19T15:39:00.374Z,69.15
2019-01-19T15:41:48.429Z,69.65
2019-01-19T15:44:31.821Z,69.54
2019-01-19T15:47:28.885Z,69.54
2019-01-19T15:50:03.118Z,70.19
2019-01-19T15:52:43.390Z,70.46
2019-01-19T15:55:31.975Z,70.20
2019-01-19T15:58:12.846Z,70.18
2019-01-19T16:00:44.407Z,70.31
2019-01-19T16:03:21.985Z,70.74
2019-01-19T16:06:10.455Z,70.94
2019-01-19T16:08:42.267Z,71.04
2019-01-19T16:11:19.264Z,70.94
2019-01-19T16:13:59.849Z,71.37
2019-01-19T16:16:31.354Z,71.74
2019-01-19T16:19:17.944Z,71.89
2019-01-19T16:22:16.290Z,72.05
2019-01-19T16:25:03.898Z,71.95
2019-01-19T16:27:41.198Z,71.90
2019-01-19T16:30:15.299Z,71.97
2019-01-19T16:33:05.238Z,71.90
2019-01-19T16:35:45.637Z,71.88
2019-01-19T16:38:22.732Z,72.18
2019-01-19T16:40:57.184Z,72.58
2019-01-19T16:43:37.557Z,72.62
2019-01-19T16:46:27.410Z,72.62
2019-01-19T16:49:04.778Z,72.51
2019-01-19T16:52:04.762Z,72.57
2019-01-19T16:54:55.813Z,72.90
2019-01-19T16:57:51.732Z,72.76
2019-01-19T17:00:35.191Z,72.95
2019-01-19T17:03:24.481Z,72.87
2019-01-19T17:06:10.729Z,72.78
2019-01-19T17:08:47.853Z,72.51
2019-01-19T17:11:28.147Z,72.98
2019-01-19T17:14:26.620Z,73.01
2019-01-19T17:17:10.235Z,72.62
2019-01-19T17:19:50.397Z,72.69
2019-01-19T17:22:21.938Z,72.92
2019-01-19T17:25:08.787Z,73.09
2019-01-19T17:27:49.484Z,73.18
2019-01-19T17:30:47.614Z,73.14
2019-01-19T17:33:21.971Z,73.20
2019-01-19T17:35:56.017Z,72.80
2019-01-19T17:38:33.163Z,73.21
2019-01-19T17:41:07.361Z,73.21
2019-01-19T17:43:41.481Z,73.32
2019-01-19T17:46:13.754Z,73.16
2019-01-19T17:48:51.339Z,73.31
2019-01-19T17:51:28.884Z,73.40
2019-01-19T17:54:00.365Z,73.28
2019-01-19T17:56:32.073Z,73.41
2019-01-19T17:59:21.798Z,73.48
2019-01-19T18:02:02.696Z,73.76
2019-01-19T18:04:42.595Z,73.49
2019-01-19T18:07:29.074Z,73.57
2019-01-19T18:10:14.646Z,73.42
2019-01-19T18:12:55.175Z,74.00
2019-01-19T18:15:50.412Z,74.05
2019-01-19T18:18:47.768Z,74.16
2019-01-19T18:21:43.702Z,74.01
2019-01-19T18:24:18.085Z,74.13
2019-01-19T18:26:52.661Z,73.99
2019-01-19T18:29:41.183Z,74.29
2019-01-19T18:32:15.452Z,74.05
2019-01-19T18:35:08.276Z,74.14
2019-01-19T18:37:42.598Z,74.36
2019-01-19T18:40:30.382Z,74.23
2019-01-19T18:43:23.079Z,74.16
2019-01-19T18:46:03.420Z,74.13
2019-01-19T18:48:46.480Z,74.26
2019-01-19T18:51:45.345Z,73.93
2019-01-19T18:54:19.367Z,73.81
2019-01-19T18:57:12.018Z,73.89
2019-01-19T18:59:45.341Z,74.08
2019-01-19T19:02:28.846Z,74.16
2019-01-19T19:05:21.479Z,74.20
2019-01-19T19:07:54.015Z,74.38
2019-01-19T19:10:44.825Z,74.70
2019-01-19T19:13:34.640Z,74.58
2019-01-19T19:16:06.293Z,74.72
2019-01-19T19:18:46.700Z,74.39
2019-01-19T19:21:24.056Z,74.35
2019-01-19T19:24:10.588Z,74.50
2019-01-19T19:26:42.203Z,74.48
2019-01-19T19:29:28.825Z,74.58
2019-01-19T19:32:12.405Z,74.76
2019-01-19T19:34:53.012Z,74.55
2019-01-19T19:37:33.554Z,74.88
2019-01-19T19:40:32.877Z,74.99
2019-01-19T19:43:07.496Z,75.12
2019-01-19T19:45:42.166Z,75.19
2019-01-19T19:48:16.690Z,75.27
2019-01-19T19:50:50.991Z,75.29
2019-01-19T19:53:19.544Z,75.21
2019-01-19T19:55:47.019Z,75.42
2019-01-19T19:58:15.701Z,75.28
2019-01-19T20:00:44.288Z,75.05
2019-01-19T20:03:12.942Z,74.90
2019-01-19T20:05:43.230Z,75.66
2019-01-19T20:08:11.920Z,75.46
2019-01-19T20:10:40.482Z,75.50
2019-01-19T20:13:09.213Z,75.37
2019-01-19T20:15:38.045Z,75.87
2019-01-19T20:18:06.908Z,75.95
2019-01-19T20:20:38.402Z,76.19
2019-01-19T20:23:07.101Z,76.10
2019-01-19T20:25:35.779Z,75.43
2019-01-19T20:28:04.479Z,75.79
2019-01-19T20:30:33.223Z,75.96
2019-01-19T20:33:02.197Z,76.35
2019-01-19T20:35:30.805Z,76.30
2019-01-19T20:37:59.739Z,76.28
2019-01-19T20:40:28.378Z,76.25
2019-01-19T20:42:57.013Z,76.25
2019-01-19T20:45:27.380Z,76.25
2019-01-19T20:47:55.977Z,76.27
2019-01-19T20:50:24.463Z,76.22
2019-01-19T20:52:53.284Z,76.09
2019-01-19T20:55:21.781Z,76.12
2019-01-19T20:57:50.264Z,76.15
2019-01-19T21:00:19.655Z,76.04
2019-01-19T21:02:48.248Z,76.27
2019-01-19T21:05:17.121Z,76.46
2019-01-19T21:07:45.810Z,76.23
2019-01-19T21:10:15.685Z,76.20
2019-01-19T21:12:44.631Z,76.25
2019-01-19T21:15:15.715Z,76.32
2019-01-19T21:17:44.423Z,76.33
2019-01-19T21:20:15.216Z,76.32
2019-01-19T21:22:45.030Z,76.77
2019-01-19T21:25:14.377Z,76.74
2019-01-19T21:27:42.942Z,76.89
2019-01-19T21:30:14.874Z,76.91
2019-01-19T21:32:43.533Z,76.62
2019-01-19T21:35:12.411Z,76.67
2019-01-19T21:37:41.178Z,76.52
2019-01-19T21:40:12.446Z,76.70
2019-01-19T21:42:41.039Z,76.61
2019-01-19T21:45:18.696Z,76.62
2019-01-19T21:47:47.287Z,76.98
2019-01-19T21:50:17.511Z,77.16
2019-01-19T21:52:46.019Z,77.28
2019-01-19T21:55:14.526Z,77.41
2019-01-19T21:57:43.181Z,77.42
2019-01-19T22:00:19.959Z,77.44
2019-01-19T22:02:48.523Z,77.29
2019-01-19T22:05:17.360Z,77.18
2019-01-19T22:07:46.030Z,77.13
2019-01-19T22:10:17.242Z,77.37
2019-01-19T22:12:45.695Z,77.39
2019-01-19T22:15:16.363Z,77.41
2019-01-19T22:17:44.805Z,77.26
2019-01-19T22:20:15.547Z,77.41
2019-01-19T22:22:44.151Z,77.42
2019-01-19T22:25:12.789Z,77.40
2019-01-19T22:27:43.210Z,77.19
2019-01-19T22:30:17.332Z,77.27
2019-01-19T22:32:46.305Z,77.15
2019-01-19T22:35:14.774Z,77.29
2019-01-19T22:37:43.321Z,77.05
2019-01-19T22:40:14.916Z,76.95
2019-01-19T22:42:43.684Z,77.43
2019-01-19T22:45:14.164Z,77.60
2019-01-19T22:47:42.741Z,77.68
2019-01-19T22:50:13.844Z,77.51
2019-01-19T22:52:42.373Z,77.56
2019-01-19T22:55:11.077Z,77.41
2019-01-19T22:57:39.634Z,77.00
2019-01-19T23:00:24.632Z,77.15
2019-01-19T23:02:53.170Z,77.31
2019-01-19T23:05:21.744Z,77.29
2019-01-19T23:07:50.173Z,77.18
2019-01-19T23:10:18.656Z,77.23
2019-01-19T23:12:47.176Z,77.33
2019-01-19T23:15:16.378Z,77.40
2019-01-19T23:17:44.871Z,77.41
2019-01-19T23:20:13.614Z,77.41
2019-01-19T23:22:42.231Z,77.27
2019-01-19T23:25:10.794Z,77.45
2019-01-19T23:27:39.402Z,77.54
2019-01-19T23:30:11.294Z,77.65
2019-01-19T23:32:39.905Z,77.49
2019-01-19T23:35:09.147Z,77.49
2019-01-19T23:37:40.368Z,77.42
2019-01-19T23:40:12.009Z,77.54
2019-01-19T23:42:47.121Z,77.38
2019-01-19T23:45:11.538Z,77.37
2019-01-19T23:47:41.529Z,77.45
2019-01-19T23:50:11.456Z,77.49
2019-01-19T23:52:40.334Z,77.60
2019-01-19T23:55:08.856Z,77.58
2019-01-19T23:57:37.998Z,77.54
